Time,TemperatureF,DewpointF,PressureIn,WindDirection,WindDirectionDegrees,WindSpeedMPH,WindSpeedGustMPH,Humidity,HourlyPrecipIn,Conditions,Clouds,dailyrainin,SoftwareType,DateUTC
2017-09-21 00:33:00,35.0,14.8,29.73,SSW,194,-999.9,-999.0,43,0.00,,,-99.99,,2017-09-21 06:33:00,
2017-09-21 01:33:00,36.6,16.2,29.77,SSW,194,-999.9,-999.0,43,0.00,,,-99.99,,2017-09-21 07:33:00,
2017-09-21 02:33:00,35.0,14.8,29.73,SSW,194,-999.9,-999.0,43,0.00,,,-99.99,,2017-09-21 08:33:00,
2017-09-21 03:33:00,35.0,14.8,29.77,SSW,194,-999.9,-999.0,43,0.00,,,-99.99,,2017-09-21 09:33:00,
2017-09-21 04:33:00,35.0,14.8,29.80,SSW,194,-999.9,-999.0,43,0.00,,,-99.99,,2017-09-21 10:33:00,
2017-09-21 05:33:00,35.0,14.8,29.80,SSW,194,-999.9,-999.0,43,0.00,,,-99.99,,2017-09-21 11:33:00,
2017-09-21 06:33:00,35.0,14.2,29.80,SSW,193,-999.9,-999.0,42,0.00,,,-99.99,,2017-09-21 12:33:00,
2017-09-21 07:33:00,30.2,10.4,29.83,SSW,194,-999.9,-999.0,43,0.00,,,-99.99,,2017-09-21 13:33:00,
2017-09-21 08:33:00,30.2,10.4,29.80,SSW,194,-999.9,-999.0,43,0.00,,,-99.99,,2017-09-21 14:33:00,
2017-09-21 09:33:00,41.4,19.5,29.80,SSW,194,-999.9,-999.0,41,0.00,,,-99.99,,2017-09-21 15:33:00,
2017-09-21 10:33:00,44.6,21.8,29.87,SSW,194,-999.9,-999.0,40,0.00,,,-99.99,,2017-09-21 16:33:00,
2017-09-21 11:33:00,52.7,28.4,29.83,SSW,194,-999.9,-999.0,39,0.00,,,-99.99,,2017-09-21 17:33:00,
2017-09-21 12:33:00,52.7,28.4,29.80,SSW,194,-999.9,-999.0,39,0.00,,,-99.99,,2017-09-21 18:33:00,
2017-09-21 13:34:00,52.7,28.4,29.80,SSW,194,-999.9,-999.0,39,0.00,,,-99.99,,2017-09-21 19:34:00,
2017-09-21 14:34:00,60.7,34.3,29.80,SSW,194,-999.9,-999.0,37,0.00,,,-99.99,,2017-09-21 20:34:00,
2017-09-21 15:34:00,55.9,30.7,29.83,SSW,194,-999.9,-999.0,38,0.00,,,-99.99,,2017-09-21 21:34:00,
2017-09-21 16:34:00,57.5,31.4,29.80,SSW,194,-999.9,-999.0,37,0.00,,,-99.99,,2017-09-21 22:34:00,
2017-09-21 17:34:00,52.7,28.4,29.83,SSW,194,-999.9,-999.0,39,0.00,,,-99.99,,2017-09-21 23:34:00,
2017-09-21 18:34:00,46.2,23.2,29.80,SSW,194,-999.9,-999.0,40,0.00,,,-99.99,,2017-09-22 00:34:00,
2017-09-21 19:34:00,39.8,18.0,29.83,SSW,194,-999.9,-999.0,41,0.00,,,-99.99,,2017-09-22 01:34:00,
2017-09-21 20:34:00,43.0,20.9,29.90,SSW,194,-999.9,-999.0,41,0.00,,,-99.99,,2017-09-22 02:34:00,